Nearby METAR Reports for Burr Ridge, IL

 

KMDW - Chicago, Illinois, USA
Distance from station: ENE 8mi, 13km
Updated: Tue, 14-Aug-2018 10:53am MST
Partly cloudy
Partly cloudy
 Wind from S
Wind: S 7 mph , 11 km/h
Temperature: 88°F , 31°C
Heat Index: 88°F , 31°C
Dew Point: 61°F , 16°C
Humidity: 40%
Barometer: 29.99 inHg , 1015.6 hPa
Clouds: Partly cloudy
Visibility: 10 miles , 16 km
Cloud details: Partly cloudy 5500 ft
Partly cloudy 25000 ft
2018/08/14 17:53 KMDW 141753Z 19006KT 10SM SCT055 SCT250 31/16 A2999 RMK AO2 SLP143 T03110156 10311 20217 58005
KLOT - Romeoville/Chi, Illinois, USA
Distance from station: SW 15mi, 24km
Updated: Tue, 14-Aug-2018 10:55am MST
Mostly cloudy
Mostly cloudy
 Wind from SSW
Wind: SSW 7 mph , 11 km/h
Temperature: 86°F , 30°C
Heat Index: 88°F , 31°C
Dew Point: 64°F , 18°C
Humidity: 49%
Barometer: 30.01 inHg , 1016.3 hPa
Clouds: Mostly cloudy
Visibility: 10 miles , 16 km
Cloud details: Mostly cloudy 4800 ft
Mostly cloudy 5500 ft
2018/08/14 17:55 KLOT 141755Z AUTO 21006KT 10SM BKN048 BKN055 30/18 A3001 RMK AO2 T03000178 10301 20176
 
KORD - Chicago O'hare, Illinois, USA
Distance from station: N 16mi, 25km
Updated: Tue, 14-Aug-2018 10:51am MST
Partly cloudy
Partly cloudy
 Wind from SW
Wind: SW 7 mph , 11 km/h
Temperature: 84°F , 29°C
Heat Index: 85°F , 29°C
Dew Point: 63°F , 17°C
Humidity: 48%
Barometer: 29.99 inHg , 1015.6 hPa
Clouds: Partly cloudy
Visibility: 10 miles , 16 km
Cloud details: Partly cloudy 5000 ft
Partly cloudy 25000 ft
2018/08/14 17:51 KORD 141751Z 23006KT 10SM SCT050 SCT250 29/17 A2999 RMK AO2 SLP150 T02940172 10300 20222 56004 $
KDPA - Chicago/Dupage, Illinois, USA
Distance from station: WNW 21mi, 34km
Updated: Tue, 14-Aug-2018 10:52am MST
Haze, Partly cloudy
Haze, Partly cloudy
 Wind from SW
Wind: SW 8 mph , 13 km/h
Temperature: 84°F , 29°C
Heat Index: 86°F , 30°C
Dew Point: 66°F , 19°C
Humidity: 55%
Barometer: 30.00 inHg , 1015.9 hPa
Summary: Haze
Clouds: Partly cloudy
Visibility: 5 miles , 8 km
Cloud details: Partly cloudy 4300 ft
2018/08/14 17:52 KDPA 141752Z 22007KT 5SM HZ SCT043 29/19 A3000 RMK AO2 SLP153 T02940194 10300 20194 58003
 
KJOT - Joliet, Illinois, USA
Distance from station: SW 22mi, 36km
Updated: Tue, 14-Aug-2018 10:55am MST
Partly cloudy
Partly cloudy
 Wind from calm
Wind: Calm
Temperature: 88°F , 31°C
Heat Index: 90°F , 32°C
Dew Point: 64°F , 18°C
Humidity: 46%
Barometer: 30.01 inHg , 1016.3 hPa
Clouds: Partly cloudy
Visibility: 10 miles , 16 km
Cloud details: Partly cloudy 4900 ft
Partly cloudy 5500 ft
2018/08/14 17:55 KJOT 141755Z AUTO 00000KT 10SM SCT049 SCT055 31/18 A3001 RMK AO2 T03060175 10307 20174
KIGQ - Chicago/Lansing, Illinois, USA
Distance from station: SE 24mi, 39km
Updated: Tue, 14-Aug-2018 10:55am MST
Partly cloudy
Partly cloudy
 Wind from SSW
Wind: SSW 9 mph , 15 km/h, Gust: 16 mph , 26 km/h
Temperature: 86°F , 30°C
Heat Index: 86°F , 30°C
Dew Point: 61°F , 16°C
Humidity: 43%
Barometer: 30.00 inHg , 1015.9 hPa
Clouds: Partly cloudy
Visibility: 10 miles , 16 km
Cloud details: Partly cloudy 6000 ft
2018/08/14 17:55 KIGQ 141755Z AUTO 20008G14KT 10SM SCT060 30/16 A3000 RMK AO2 T03040155 10306 20171
 
KPWK - Palwaukee, Illinois, USA
Distance from station: N 25mi, 40km
Updated: Tue, 14-Aug-2018 10:52am MST
Partly cloudy
Partly cloudy
 Wind from W
Wind: W 8 mph , 13 km/h
Temperature: 88°F , 31°C
Heat Index: 90°F , 32°C
Dew Point: 64°F , 18°C
Humidity: 46%
Barometer: 30.00 inHg , 1015.9 hPa
Clouds: Partly cloudy
Visibility: 10 miles , 16 km
Cloud details: Partly cloudy 6000 ft
2018/08/14 17:52 KPWK 141752Z 27007KT 10SM SCT060 31/18 A3000 RMK AO2 SLP154 T03060178 10306 20222 58004
KGYY - Gary Regional, Indiana, USA
Distance from station: ESE 27mi, 43km
Updated: Tue, 14-Aug-2018 10:45am MST
Partly cloudy
Partly cloudy
 Wind from SW
Wind: SW 6 mph , 9 km/h
Temperature: 86°F , 30°C
Dew Point: 57°F , 14°C
Humidity: 38%
Barometer: 30.00 inHg , 1015.9 hPa
Clouds: Partly cloudy
Visibility: 10 miles , 16 km
Cloud details: Partly cloudy 5000 ft
2018/08/14 17:45 KGYY 141745Z 23005KT 10SM SCT050 30/14 A3000
 
KARR - Chicago/Aurora, Illinois, USA
Distance from station: W 30mi, 48km
Updated: Tue, 14-Aug-2018 10:52am MST
Partly cloudy
Partly cloudy
 Wind from W
Wind: W 8 mph , 13 km/h
Temperature: 84°F , 29°C
Heat Index: 87°F , 31°C
Dew Point: 68°F , 20°C
Humidity: 58%
Barometer: 30.01 inHg , 1016.3 hPa
Clouds: Partly cloudy
Visibility: 7 miles , 11 km
Cloud details: Partly cloudy 3800 ft
2018/08/14 17:52 KARR 141752Z 26007KT 7SM SCT038 29/20 A3001 RMK AO2 SLP157 T02940200 10306 20172 56003
KC09 - Morris-Washburn, Illinois, USA
Distance from station: SW 35mi, 56km
Updated: Tue, 14-Aug-2018 10:55am MST
Mostly cloudy
Mostly cloudy
 Wind from SSW
Wind: SSW 5 mph , 7 km/h
Temperature: 84°F , 29°C
Heat Index: 85°F , 29°C
Dew Point: 64°F , 18°C
Humidity: 51%
Barometer: 30.00 inHg , 1015.9 hPa
Clouds: Mostly cloudy
Visibility: 10 miles , 16 km
Cloud details: Mostly cloudy 5000 ft
2018/08/14 17:55 KC09 141755Z AUTO 20004KT 10SM BKN050 29/18 A3000 RMK AO2 T02930177 10295 20170
 
KDKB - De Kalb, Illinois, USA
Distance from station: WNW 43mi, 69km
Updated: Tue, 14-Aug-2018 10:55am MST
Overcast
Overcast
 Wind from WSW
Wind: WSW 9 mph , 15 km/h
Temperature: 84°F , 29°C
Heat Index: 87°F , 31°C
Dew Point: 68°F , 20°C
Humidity: 58%
Barometer: 30.02 inHg , 1016.6 hPa
Clouds: Overcast
Visibility: 10 miles , 16 km
Cloud details: Mostly cloudy 3500 ft
Overcast 5000 ft
2018/08/14 17:55 KDKB 141755Z AUTO 24008KT 10SM BKN035 OVC050 29/20 A3002 RMK AO2 T02860204 10289 20184
KUGN - Waukegan, Illinois, USA
Distance from station: N 46mi, 73km
Updated: Tue, 14-Aug-2018 10:55am MST
Mostly cloudy
Mostly cloudy
 Wind from varies
Wind: varies 5 mph , 7 km/h
Temperature: 84°F , 29°C
Heat Index: 87°F , 31°C
Dew Point: 68°F , 20°C
Humidity: 58%
Barometer: 29.98 inHg , 1015.2 hPa
Clouds: Mostly cloudy
Visibility: 8 miles , 13 km
Cloud details: Mostly cloudy 4700 ft
Mostly cloudy 5500 ft
2018/08/14 17:55 KUGN 141755Z VRB04KT 8SM BKN047 BKN055 29/20 A2998 RMK AO2 SLP139 T02940200 10294 20206 58004
 
KIKK - Kankakee, Illinois, USA
Distance from station: S 48mi, 77km
Updated: Tue, 14-Aug-2018 10:55am MST
Partly cloudy
Partly cloudy
 Wind from WSW
Wind: WSW 3 mph , 6 km/h
Temperature: 86°F , 30°C
Heat Index: 86°F , 30°C
Dew Point: 61°F , 16°C
Humidity: 43%
Barometer: 30.02 inHg , 1016.6 hPa
Clouds: Partly cloudy
Visibility: 10 miles , 16 km
Cloud details: Partly cloudy 5500 ft
2018/08/14 17:55 KIKK 141755Z AUTO 25003KT 10SM SCT055 30/16 A3002 RMK AO2 T03010157 10301 20165